createdAt,value
2023-11-17T00:01:54.153Z,55.50
2023-11-17T00:04:27.388Z,54.10
2023-11-17T00:07:32.624Z,54.40
2023-11-17T00:10:18.472Z,56.40
2023-11-17T00:12:55.179Z,56.70
2023-11-17T00:15:33.142Z,54.90
2023-11-17T00:18:06.459Z,56.30
2023-11-17T00:20:40.138Z,52.10
2023-11-17T00:23:46.263Z,55.80
2023-11-17T00:26:17.003Z,52.80
2023-11-17T00:28:51.885Z,52.80
2023-11-17T00:31:36.151Z,55.50
2023-11-17T00:34:11.346Z,53.60
2023-11-17T00:36:49.472Z,54.00
2023-11-17T00:39:33.646Z,53.30
2023-11-17T00:42:17.178Z,54.30
2023-11-17T00:44:58.807Z,53.60
2023-11-17T00:47:47.084Z,54.50
2023-11-17T00:50:22.431Z,55.20
2023-11-17T00:52:56.606Z,52.20
2023-11-17T00:55:37.527Z,53.70
2023-11-17T00:58:27.282Z,53.40
2023-11-17T01:01:48.390Z,56.30
2023-11-17T01:07:27.751Z,59.30
2023-11-17T01:10:19.499Z,55.80
2023-11-17T01:12:53.108Z,61.60
2023-11-17T01:15:35.755Z,62.50
2023-11-17T01:18:22.110Z,59.60
2023-11-17T01:20:56.706Z,57.90
2023-11-17T01:23:30.150Z,56.00
2023-11-17T01:26:22.251Z,54.30
2023-11-17T01:29:01.363Z,62.70
2023-11-17T01:32:04.188Z,62.10
2023-11-17T01:34:49.332Z,61.10
2023-11-17T01:37:44.569Z,61.60
2023-11-17T01:40:45.541Z,57.70
2023-11-17T01:43:38.739Z,59.60
2023-11-17T01:46:31.202Z,60.00
2023-11-17T01:49:14.037Z,60.40
2023-11-17T01:51:53.398Z,57.50
2023-11-17T01:54:56.156Z,57.50
2023-11-17T01:57:40.876Z,56.90
2023-11-17T02:00:17.664Z,56.30
2023-11-17T02:03:06.745Z,56.30
2023-11-17T02:06:03.527Z,55.30
2023-11-17T02:09:04.372Z,53.00
2023-11-17T02:12:05.897Z,51.30
2023-11-17T02:14:50.651Z,55.50
2023-11-17T02:17:29.838Z,50.70
2023-11-17T02:20:17.003Z,52.20
2023-11-17T02:23:20.901Z,50.30
2023-11-17T02:26:23.554Z,53.30
2023-11-17T02:29:54.583Z,54.70
2023-11-17T02:32:41.638Z,48.90
2023-11-17T02:35:26.928Z,50.30
2023-11-17T02:38:13.204Z,48.00
2023-11-17T02:40:48.717Z,51.20
2023-11-17T02:43:48.464Z,51.10
2023-11-17T02:46:36.330Z,48.30
2023-11-17T02:49:22.092Z,48.00
2023-11-17T02:51:52.793Z,47.00
2023-11-17T02:54:36.380Z,49.40
2023-11-17T02:57:12.039Z,50.00
2023-11-17T02:59:54.028Z,49.20
2023-11-17T03:02:32.234Z,48.80
2023-11-17T03:05:14.793Z,50.90
2023-11-17T03:07:54.676Z,50.50
2023-11-17T03:10:54.443Z,51.50
2023-11-17T03:13:31.258Z,50.00
2023-11-17T03:16:02.839Z,52.10
2023-11-17T03:18:44.928Z,51.60
2023-11-17T03:21:42.539Z,50.30
2023-11-17T03:24:29.371Z,49.80
2023-11-17T03:27:02.426Z,49.20
2023-11-17T03:29:41.254Z,49.90
2023-11-17T03:32:22.718Z,49.40
2023-11-17T03:34:53.071Z,47.60
2023-11-17T03:37:30.500Z,49.10
2023-11-17T03:40:17.420Z,50.60
2023-11-17T03:42:53.263Z,50.30
2023-11-17T03:45:39.615Z,52.50
2023-11-17T03:48:14.498Z,52.20
2023-11-17T03:50:45.994Z,55.20
2023-11-17T03:53:22.821Z,55.30
2023-11-17T03:56:16.621Z,55.70
2023-11-17T03:58:52.878Z,53.40
2023-11-17T04:01:46.885Z,56.90
2023-11-17T04:04:24.634Z,55.90
2023-11-17T04:07:06.319Z,56.50
2023-11-17T04:09:41.704Z,56.30
2023-11-17T04:12:22.657Z,55.50
2023-11-17T04:15:05.852Z,59.80
2023-11-17T04:17:51.938Z,56.60
2023-11-17T04:20:58.861Z,58.30
2023-11-17T04:27:15.784Z,59.70
2023-11-17T04:33:04.709Z,54.80
2023-11-17T04:35:57.266Z,53.50
2023-11-17T04:38:31.345Z,59.70
2023-11-17T04:41:23.390Z,56.10
2023-11-17T04:47:07.509Z,55.00
2023-11-17T04:49:59.241Z,56.30
2023-11-17T04:52:38.091Z,57.60
2023-11-17T04:55:27.568Z,58.10
2023-11-17T04:58:11.547Z,56.30
2023-11-17T05:00:56.596Z,60.00
2023-11-17T05:03:45.717Z,58.50
2023-11-17T05:06:44.534Z,58.60
2023-11-17T05:09:27.564Z,57.60
2023-11-17T05:12:22.782Z,58.50
2023-11-17T05:15:08.413Z,57.90
2023-11-17T05:17:44.696Z,56.20
2023-11-17T05:21:24.249Z,59.10
2023-11-17T05:24:05.588Z,69.10
2023-11-17T05:26:40.529Z,59.90
2023-11-17T05:29:28.177Z,59.60
2023-11-17T05:31:57.104Z,59.60
2023-11-17T05:34:27.990Z,60.40
2023-11-17T05:37:03.053Z,56.80
2023-11-17T05:39:36.244Z,58.30
2023-11-17T05:42:09.767Z,60.80
2023-11-17T05:44:44.374Z,59.10
2023-11-17T05:47:20.415Z,56.50
2023-11-17T05:49:49.746Z,59.20
2023-11-17T05:52:21.529Z,58.70
2023-11-17T05:54:50.106Z,57.30
2023-11-17T05:57:23.569Z,57.90
2023-11-17T05:59:58.764Z,55.80
2023-11-17T06:02:34.243Z,58.80
2023-11-17T06:05:02.929Z,58.40
2023-11-17T06:07:41.460Z,59.60
2023-11-17T06:10:21.578Z,61.00
2023-11-17T06:12:53.395Z,60.90
2023-11-17T06:15:27.862Z,57.00
2023-11-17T06:18:08.471Z,56.80
2023-11-17T06:20:37.425Z,56.00
2023-11-17T06:23:17.779Z,55.50
2023-11-17T06:25:49.189Z,55.10
2023-11-17T06:28:31.571Z,56.30
2023-11-17T06:31:08.393Z,55.70
2023-11-17T06:33:47.209Z,56.40
2023-11-17T06:36:29.118Z,56.00
2023-11-17T06:41:39.993Z,62.70
2023-11-17T06:44:11.263Z,60.30
2023-11-17T06:46:53.677Z,62.10
2023-11-17T06:49:28.706Z,63.50
2023-11-17T06:52:14.139Z,58.20
2023-11-17T06:54:57.883Z,54.20
2023-11-17T06:57:37.582Z,51.90
2023-11-17T07:00:16.166Z,50.20
2023-11-17T07:02:59.034Z,47.90
2023-11-17T07:05:36.011Z,46.10
2023-11-17T07:08:18.552Z,45.20
2023-11-17T07:11:00.509Z,44.80
2023-11-17T07:13:39.892Z,54.00
2023-11-17T07:16:20.136Z,53.70
2023-11-17T07:18:56.098Z,46.30
2023-11-17T07:21:29.597Z,43.50
2023-11-17T07:24:15.316Z,41.50
2023-11-17T07:29:38.794Z,41.00
2023-11-17T07:32:18.417Z,45.60
2023-11-17T07:35:04.620Z,42.30
2023-11-17T07:37:46.890Z,42.10
2023-11-17T07:40:25.665Z,41.20
2023-11-17T07:43:04.814Z,43.40
2023-11-17T07:45:38.408Z,46.60
2023-11-17T07:48:32.350Z,46.10
2023-11-17T07:51:32.143Z,47.70
2023-11-17T07:54:19.520Z,46.40
2023-11-17T07:57:06.879Z,37.60
2023-11-17T07:59:47.750Z,37.90
2023-11-17T08:02:41.867Z,35.80
2023-11-17T08:05:21.575Z,32.50
2023-11-17T08:07:56.784Z,31.90
2023-11-17T08:10:32.893Z,29.10
2023-11-17T08:13:14.011Z,53.50
2023-11-17T08:15:49.439Z,32.00
2023-11-17T08:18:27.417Z,30.70
2023-11-17T08:23:36.952Z,24.50
2023-11-17T08:26:15.125Z,25.10
2023-11-17T08:28:45.193Z,25.00
2023-11-17T08:31:21.535Z,22.60
2023-11-17T08:33:59.860Z,25.70
2023-11-17T08:36:39.352Z,23.90
2023-11-17T08:39:28.291Z,20.10
2023-11-17T08:42:21.789Z,20.20
2023-11-17T08:45:28.908Z,19.90
2023-11-17T08:48:06.963Z,16.30
2023-11-17T08:50:45.889Z,16.70
2023-11-17T08:53:38.855Z,15.70
2023-11-17T08:56:19.255Z,16.20
2023-11-17T08:58:58.315Z,15.30
2023-11-17T09:02:09.399Z,13.60
2023-11-17T09:04:48.112Z,12.70
2023-11-17T09:07:45.050Z,11.60
2023-11-17T09:10:30.227Z,12.50
2023-11-17T09:13:11.106Z,10.20
2023-11-17T09:18:28.135Z,13.20
2023-11-17T09:21:02.103Z,14.60
2023-11-17T09:23:41.671Z,12.30
2023-11-17T09:26:27.510Z,10.80
2023-11-17T09:29:13.243Z,13.60
2023-11-17T09:31:49.130Z,13.50
2023-11-17T09:34:38.466Z,11.10
2023-11-17T09:37:24.483Z,42.30
2023-11-17T09:40:01.197Z,18.40
2023-11-17T09:46:01.695Z,14.00
2023-11-17T09:48:44.341Z,15.20
2023-11-17T09:51:37.273Z,12.40
2023-11-17T09:54:34.850Z,13.50
2023-11-17T09:57:28.347Z,12.10
2023-11-17T10:00:25.353Z,11.80
2023-11-17T10:03:17.761Z,11.70
2023-11-17T10:06:14.578Z,12.50
2023-11-17T10:09:02.356Z,11.00
2023-11-17T10:11:51.535Z,25.60
2023-11-17T10:14:42.371Z,12.10
2023-11-17T10:17:23.432Z,12.90
2023-11-17T10:20:27.543Z,11.90
2023-11-17T10:23:15.381Z,11.50
2023-11-17T10:25:56.866Z,11.10
2023-11-17T10:29:04.076Z,8.50
2023-11-17T10:32:11.170Z,8.60
2023-11-17T10:35:34.829Z,9.00
2023-11-17T10:38:21.166Z,8.10
2023-11-17T10:41:23.713Z,6.70
2023-11-17T10:44:11.732Z,7.80
2023-11-17T10:46:53.034Z,6.10
2023-11-17T10:49:46.057Z,6.50
2023-11-17T10:52:31.445Z,6.80
2023-11-17T10:55:04.008Z,5.60
2023-11-17T10:57:36.272Z,5.70
2023-11-17T11:00:32.570Z,5.70
2023-11-17T11:03:23.820Z,6.00
2023-11-17T11:06:12.029Z,6.00
2023-11-17T11:09:18.100Z,6.90
2023-11-17T11:12:28.278Z,5.50
2023-11-17T11:15:25.898Z,5.80
2023-11-17T11:18:29.586Z,6.40
2023-11-17T11:21:21.163Z,5.80
2023-11-17T11:24:04.288Z,6.20
2023-11-17T11:27:01.966Z,5.80
2023-11-17T11:29:44.192Z,5.70
2023-11-17T11:32:25.902Z,6.40
2023-11-17T11:35:01.624Z,5.70
2023-11-17T11:37:38.767Z,5.80
2023-11-17T11:40:19.801Z,5.60
2023-11-17T11:43:08.133Z,5.30
2023-11-17T11:46:08.188Z,4.30
2023-11-17T11:49:20.991Z,3.80
2023-11-17T11:52:10.581Z,3.70
2023-11-17T11:54:51.238Z,4.10
2023-11-17T11:57:35.267Z,3.30
2023-11-17T12:00:16.749Z,4.20
2023-11-17T12:03:11.492Z,3.60
2023-11-17T12:05:54.350Z,4.10
2023-11-17T12:08:35.868Z,4.00
2023-11-17T12:11:23.236Z,3.80
2023-11-17T12:14:22.021Z,3.10
2023-11-17T12:17:09.032Z,3.80
2023-11-17T12:19:38.021Z,3.40
2023-11-17T12:22:17.962Z,3.70
2023-11-17T12:25:01.252Z,4.70
2023-11-17T12:27:55.062Z,5.40
2023-11-17T12:30:57.296Z,5.30
2023-11-17T12:33:36.007Z,4.90
2023-11-17T12:36:41.232Z,5.50
2023-11-17T12:40:06.936Z,5.40
2023-11-17T12:43:03.104Z,5.60
2023-11-17T12:45:53.505Z,5.90
2023-11-17T12:48:41.494Z,7.00
2023-11-17T12:51:29.772Z,6.70
2023-11-17T12:54:06.622Z,5.90
2023-11-17T12:56:55.908Z,6.60
2023-11-17T12:59:49.809Z,7.00
2023-11-17T13:02:34.501Z,7.00
2023-11-17T13:05:50.073Z,6.90
2023-11-17T13:08:44.330Z,6.70
2023-11-17T13:11:28.795Z,6.90
2023-11-17T13:14:23.404Z,6.50
2023-11-17T13:17:00.008Z,6.20
2023-11-17T13:19:35.832Z,6.70
2023-11-17T13:22:14.371Z,6.70
2023-11-17T13:25:11.726Z,7.70
2023-11-17T13:27:53.677Z,6.80
2023-11-17T13:30:52.576Z,7.70
2023-11-17T13:33:48.953Z,7.10
2023-11-17T13:37:07.525Z,6.50
2023-11-17T13:40:00.861Z,17.70
2023-11-17T13:43:19.039Z,17.60
2023-11-17T13:46:12.396Z,6.50
2023-11-17T13:49:28.372Z,7.60
2023-11-17T13:52:14.046Z,7.10
2023-11-17T13:55:03.125Z,8.00
2023-11-17T13:58:00.919Z,8.90
2023-11-17T14:01:07.764Z,7.40
2023-11-17T14:03:58.813Z,7.70
2023-11-17T14:06:42.871Z,7.40
2023-11-17T14:12:25.999Z,7.70
2023-11-17T14:15:15.856Z,8.30
2023-11-17T14:18:21.840Z,9.50
2023-11-17T14:21:07.144Z,9.00
2023-11-17T14:23:46.369Z,8.90
2023-11-17T14:29:41.818Z,9.80
2023-11-17T14:32:32.615Z,9.40
2023-11-17T14:35:19.345Z,9.70
2023-11-17T14:37:48.504Z,8.80
2023-11-17T14:40:20.390Z,9.50
2023-11-17T14:43:10.610Z,9.80
2023-11-17T14:45:55.290Z,10.10
2023-11-17T14:48:39.311Z,10.70
2023-11-17T14:51:21.451Z,10.70
2023-11-17T14:57:13.412Z,10.60
2023-11-17T15:00:02.242Z,11.70
2023-11-17T15:02:57.997Z,11.90
2023-11-17T15:08:30.265Z,11.60
2023-11-17T15:11:12.154Z,11.00
2023-11-17T15:13:53.787Z,10.00
2023-11-17T15:16:47.443Z,10.10
2023-11-17T15:19:48.693Z,9.10
2023-11-17T15:22:24.537Z,9.20
2023-11-17T15:25:02.042Z,9.90
2023-11-17T15:27:41.074Z,10.60
2023-11-17T15:30:26.966Z,11.00
2023-11-17T15:32:58.969Z,10.30
2023-11-17T15:35:43.142Z,9.50
2023-11-17T15:38:41.102Z,9.60
2023-11-17T15:41:30.394Z,11.50
2023-11-17T15:44:19.092Z,9.90
2023-11-17T15:47:08.474Z,9.70
2023-11-17T15:56:08.541Z,11.10
2023-11-17T15:59:07.301Z,11.00
2023-11-17T16:01:50.390Z,13.50
2023-11-17T16:04:34.069Z,11.90
2023-11-17T16:07:29.203Z,11.70
2023-11-17T16:10:03.399Z,13.50
2023-11-17T16:12:52.369Z,12.10
2023-11-17T16:15:36.259Z,10.80
2023-11-17T16:18:23.633Z,12.10
2023-11-17T16:21:30.963Z,14.40
2023-11-17T16:24:11.889Z,14.60
2023-11-17T16:26:46.364Z,22.20
2023-11-17T16:29:44.957Z,14.80
2023-11-17T16:35:40.188Z,13.50
2023-11-17T16:38:25.537Z,16.10
2023-11-17T16:41:07.280Z,17.20
2023-11-17T16:43:39.031Z,17.90
2023-11-17T16:46:22.972Z,20.10
2023-11-17T16:49:21.765Z,20.40
2023-11-17T16:52:12.769Z,19.90
2023-11-17T16:55:06.097Z,17.70
2023-11-17T17:01:30.737Z,19.80
2023-11-17T17:04:07.205Z,18.10
2023-11-17T17:06:48.597Z,16.30
2023-11-17T17:09:21.675Z,17.30
2023-11-17T17:12:00.074Z,16.20
2023-11-17T17:14:37.943Z,17.60
2023-11-17T17:17:09.218Z,17.20
2023-11-17T17:19:57.415Z,19.90
2023-11-17T17:22:29.333Z,19.20
2023-11-17T17:25:04.634Z,18.80
2023-11-17T17:28:11.097Z,18.00
2023-11-17T17:30:43.704Z,18.90
2023-11-17T17:33:13.892Z,21.20
2023-11-17T17:35:47.957Z,19.40
2023-11-17T17:38:30.909Z,18.30
2023-11-17T17:41:02.734Z,18.50
2023-11-17T17:43:39.936Z,19.10
2023-11-17T17:46:15.147Z,21.10
2023-11-17T17:48:49.749Z,19.30
2023-11-17T17:51:28.216Z,18.20
2023-11-17T17:54:08.553Z,15.70
2023-11-17T17:56:40.652Z,15.10
2023-11-17T17:59:13.930Z,16.30
2023-11-17T18:01:53.673Z,16.40
2023-11-17T18:04:36.447Z,13.50
2023-11-17T18:07:13.951Z,13.80
2023-11-17T18:09:54.047Z,12.50
2023-11-17T18:12:42.346Z,12.00
2023-11-17T18:15:37.158Z,14.10
2023-11-17T18:18:10.671Z,14.40
2023-11-17T18:20:44.579Z,21.20
2023-11-17T18:23:36.104Z,19.10
2023-11-17T18:26:19.734Z,18.60
2023-11-17T18:29:04.124Z,17.80
2023-11-17T18:31:46.736Z,22.10
2023-11-17T18:34:39.733Z,22.80
2023-11-17T18:37:15.508Z,18.40
2023-11-17T18:39:56.732Z,20.00
2023-11-17T18:42:55.032Z,19.90
2023-11-17T18:45:40.097Z,17.70
2023-11-17T18:48:26.920Z,16.90
2023-11-17T18:51:17.037Z,14.60
2023-11-17T18:53:51.890Z,16.00
2023-11-17T18:56:46.083Z,16.50
2023-11-17T18:59:31.206Z,18.30
2023-11-17T19:02:04.578Z,17.30
2023-11-17T19:04:52.359Z,17.50
2023-11-17T19:07:39.067Z,19.60
2023-11-17T19:10:43.789Z,21.30
2023-11-17T19:16:46.315Z,17.40
2023-11-17T19:19:39.255Z,17.80
2023-11-17T19:22:26.927Z,17.40
2023-11-17T19:25:25.293Z,17.40
2023-11-17T19:28:24.888Z,17.60
2023-11-17T19:31:02.358Z,17.50
2023-11-17T19:33:35.451Z,19.40
2023-11-17T19:36:10.052Z,20.20
2023-11-17T19:38:52.207Z,20.50
2023-11-17T19:41:44.028Z,22.10
2023-11-17T19:44:20.376Z,17.80
2023-11-17T19:47:13.862Z,22.10
2023-11-17T19:49:44.068Z,18.50
2023-11-17T19:52:14.633Z,18.70
2023-11-17T19:54:58.735Z,24.30
2023-11-17T19:57:48.815Z,22.60
2023-11-17T20:00:32.304Z,18.70
2023-11-17T20:03:08.299Z,19.00
2023-11-17T20:05:45.776Z,17.20
2023-11-17T20:08:29.624Z,17.30
2023-11-17T20:11:00.041Z,14.00
2023-11-17T20:13:56.356Z,14.60
2023-11-17T20:16:34.732Z,17.30
2023-11-17T20:19:23.872Z,12.60
2023-11-17T20:22:25.047Z,14.40
2023-11-17T20:25:03.945Z,13.70
2023-11-17T20:28:01.511Z,13.60
2023-11-17T20:30:49.251Z,16.10
2023-11-17T20:33:34.060Z,13.00
2023-11-17T20:36:21.315Z,12.50
2023-11-17T20:38:55.270Z,10.70
2023-11-17T20:41:36.791Z,12.50
2023-11-17T20:44:30.388Z,14.50
2023-11-17T20:47:15.516Z,12.00
2023-11-17T20:50:02.465Z,10.80
2023-11-17T20:52:44.594Z,11.20
2023-11-17T20:55:29.243Z,11.60
2023-11-17T20:58:11.633Z,10.00
2023-11-17T21:01:05.567Z,9.80
2023-11-17T21:03:46.613Z,9.90
2023-11-17T21:06:32.973Z,9.90
2023-11-17T21:09:21.030Z,9.80
2023-11-17T21:12:13.201Z,11.00
2023-11-17T21:14:51.446Z,10.00
2023-11-17T21:17:53.806Z,11.80
2023-11-17T21:20:48.644Z,10.70
2023-11-17T21:23:45.489Z,11.60
2023-11-17T21:26:22.465Z,12.20
2023-11-17T21:29:14.826Z,12.00
2023-11-17T21:31:52.783Z,12.00
2023-11-17T21:34:41.233Z,11.50
2023-11-17T21:37:14.648Z,11.90
2023-11-17T21:40:03.755Z,12.80
2023-11-17T21:43:04.143Z,11.10
2023-11-17T21:45:42.697Z,12.00
2023-11-17T21:48:34.124Z,11.60
2023-11-17T21:51:21.690Z,12.50
2023-11-17T21:54:04.809Z,11.80
2023-11-17T21:56:37.503Z,11.60
2023-11-17T21:59:18.360Z,12.60
2023-11-17T22:02:01.191Z,12.30
2023-11-17T22:04:51.812Z,12.60
2023-11-17T22:07:53.492Z,14.40
2023-11-17T22:10:25.801Z,11.90
2023-11-17T22:13:24.923Z,12.80
2023-11-17T22:16:06.586Z,12.80
2023-11-17T22:18:48.780Z,13.10
2023-11-17T22:24:17.079Z,12.80
2023-11-17T22:27:02.160Z,14.80
2023-11-17T22:29:41.094Z,15.70
2023-11-17T22:32:11.554Z,16.90
2023-11-17T22:34:51.810Z,15.50
2023-11-17T22:37:26.262Z,16.40
2023-11-17T22:40:07.948Z,16.30
2023-11-17T22:42:50.090Z,17.00
2023-11-17T22:45:29.437Z,14.80
2023-11-17T22:48:08.827Z,15.90
2023-11-17T22:50:55.548Z,16.90
2023-11-17T22:53:47.197Z,17.40
2023-11-17T22:56:48.302Z,17.40
2023-11-17T22:59:31.429Z,17.10
2023-11-17T23:02:12.241Z,15.20
2023-11-17T23:05:08.529Z,15.30
2023-11-17T23:07:51.737Z,15.80
2023-11-17T23:10:33.372Z,14.00
2023-11-17T23:13:09.703Z,13.20
2023-11-17T23:16:05.583Z,11.20
2023-11-17T23:18:36.221Z,10.40
2023-11-17T23:21:06.224Z,7.80
2023-11-17T23:23:39.159Z,6.90
2023-11-17T23:26:16.627Z,6.20
2023-11-17T23:28:52.204Z,6.70
2023-11-17T23:31:26.584Z,6.30
2023-11-17T23:33:58.213Z,6.90
2023-11-17T23:36:26.733Z,6.90
2023-11-17T23:38:55.350Z,6.20
2023-11-17T23:41:24.815Z,5.90
2023-11-17T23:44:00.836Z,5.90
2023-11-17T23:46:47.261Z,6.40
2023-11-17T23:49:22.226Z,6.00
2023-11-17T23:51:56.218Z,5.50
2023-11-17T23:54:27.692Z,6.00
2023-11-17T23:57:07.996Z,5.50
2023-11-17T23:59:42.689Z,6.30
